createdAt,value
2022-10-09T00:01:47.531Z,88.40
2022-10-09T00:04:15.203Z,88.30
2022-10-09T00:06:41.883Z,88.30
2022-10-09T00:09:08.633Z,88.20
2022-10-09T00:11:35.304Z,88.60
2022-10-09T00:14:02.162Z,88.40
2022-10-09T00:16:29.009Z,88.60
2022-10-09T00:18:55.813Z,88.50
2022-10-09T00:21:24.834Z,88.60
2022-10-09T00:23:52.405Z,88.30
2022-10-09T00:26:19.259Z,88.40
2022-10-09T00:28:46.967Z,88.50
2022-10-09T00:31:14.231Z,88.50
2022-10-09T00:33:40.891Z,88.60
2022-10-09T00:36:12.199Z,88.60
2022-10-09T00:38:39.316Z,88.40
2022-10-09T00:41:06.439Z,88.50
2022-10-09T00:43:38.809Z,88.80
2022-10-09T00:46:06.922Z,88.50
2022-10-09T00:48:33.903Z,88.50
2022-10-09T00:51:01.479Z,88.40
2022-10-09T00:53:29.662Z,88.50
2022-10-09T00:55:57.861Z,88.50
2022-10-09T00:58:25.073Z,88.70
2022-10-09T01:00:52.340Z,88.50
2022-10-09T01:03:19.167Z,88.80
2022-10-09T01:06:02.796Z,88.80
2022-10-09T01:08:43.378Z,88.60
2022-10-09T01:11:16.551Z,88.40
2022-10-09T01:13:46.917Z,88.90
2022-10-09T01:16:22.856Z,88.70
2022-10-09T01:18:56.892Z,88.60
2022-10-09T01:21:26.137Z,88.60
2022-10-09T01:23:55.774Z,88.50
2022-10-09T01:26:25.667Z,88.40
2022-10-09T01:28:53.948Z,88.50
2022-10-09T01:31:21.955Z,88.60
2022-10-09T01:33:49.098Z,88.40
2022-10-09T01:36:17.545Z,88.70
2022-10-09T01:38:45.050Z,88.60
2022-10-09T01:41:12.931Z,88.80
2022-10-09T01:43:40.613Z,89.00
2022-10-09T01:46:17.954Z,88.90
2022-10-09T01:48:46.000Z,88.90
2022-10-09T01:51:13.476Z,88.90
2022-10-09T01:53:40.562Z,89.10
2022-10-09T01:56:09.165Z,88.80
2022-10-09T01:58:44.128Z,89.00
2022-10-09T02:01:13.905Z,89.00
2022-10-09T02:03:42.222Z,89.00
2022-10-09T02:06:11.094Z,89.00
2022-10-09T02:08:39.135Z,89.30
2022-10-09T02:11:06.772Z,89.50
2022-10-09T02:13:34.850Z,89.40
2022-10-09T02:16:01.489Z,89.40
2022-10-09T02:18:33.963Z,89.50
2022-10-09T02:21:05.662Z,89.70
2022-10-09T02:23:34.967Z,89.60
2022-10-09T02:26:01.647Z,89.30
2022-10-09T02:28:28.395Z,89.50
2022-10-09T02:31:03.411Z,89.40
2022-10-09T02:33:34.761Z,89.40
2022-10-09T02:36:02.145Z,89.40
2022-10-09T02:38:29.890Z,89.40
2022-10-09T02:41:00.803Z,89.30
2022-10-09T02:43:27.557Z,89.50
2022-10-09T02:45:55.725Z,89.40
2022-10-09T02:48:22.402Z,89.50
2022-10-09T02:50:49.055Z,89.60
2022-10-09T02:53:15.889Z,89.40
2022-10-09T02:55:42.496Z,89.50
2022-10-09T02:58:09.166Z,89.40
2022-10-09T03:00:37.575Z,89.40
2022-10-09T03:03:04.310Z,89.30
2022-10-09T03:05:31.050Z,89.40
2022-10-09T03:07:58.785Z,89.40
2022-10-09T03:10:25.373Z,89.50
2022-10-09T03:12:52.209Z,90.00
2022-10-09T03:15:18.876Z,89.90
2022-10-09T03:17:45.565Z,89.50
2022-10-09T03:20:12.223Z,89.50
2022-10-09T03:22:39.909Z,89.90
2022-10-09T03:25:09.368Z,90.20
2022-10-09T03:27:36.167Z,89.70
2022-10-09T03:30:03.398Z,89.80
2022-10-09T03:32:31.643Z,89.60
2022-10-09T03:34:58.313Z,89.50
2022-10-09T03:37:24.955Z,89.90
2022-10-09T03:39:51.662Z,89.60
2022-10-09T03:42:18.306Z,90.10
2022-10-09T03:44:45.006Z,89.90
2022-10-09T03:47:11.705Z,89.80
2022-10-09T03:49:38.318Z,89.70
2022-10-09T03:52:04.947Z,89.80
2022-10-09T03:54:31.685Z,89.70
2022-10-09T03:56:58.377Z,89.70
2022-10-09T03:59:26.019Z,89.70
2022-10-09T04:01:53.131Z,89.80
2022-10-09T04:04:19.781Z,90.10
2022-10-09T04:06:46.434Z,89.80
2022-10-09T04:09:13.027Z,90.20
2022-10-09T04:11:39.638Z,90.40
2022-10-09T04:14:06.274Z,90.60
2022-10-09T04:16:33.096Z,90.40
2022-10-09T04:18:59.834Z,90.50
2022-10-09T04:21:28.712Z,90.50
2022-10-09T04:23:55.371Z,90.50
2022-10-09T04:26:21.997Z,90.80
2022-10-09T04:28:49.973Z,90.50
2022-10-09T04:31:16.706Z,90.40
2022-10-09T04:33:43.358Z,90.40
2022-10-09T04:36:10.111Z,90.30
2022-10-09T04:38:36.710Z,90.10
2022-10-09T04:41:05.693Z,90.00
2022-10-09T04:43:33.364Z,89.90
2022-10-09T04:46:03.651Z,90.20
2022-10-09T04:48:30.384Z,90.40
2022-10-09T04:50:59.171Z,90.20
2022-10-09T04:53:26.166Z,90.30
2022-10-09T04:55:55.862Z,90.30
2022-10-09T04:58:22.554Z,90.40
2022-10-09T05:00:49.465Z,90.30
2022-10-09T05:03:16.182Z,90.40
2022-10-09T05:05:42.784Z,90.20
2022-10-09T05:08:09.401Z,90.00
2022-10-09T05:10:36.041Z,90.10
2022-10-09T05:13:02.728Z,90.40
2022-10-09T05:15:31.950Z,90.40
2022-10-09T05:17:58.506Z,90.40
2022-10-09T05:20:25.171Z,90.40
2022-10-09T05:22:52.227Z,90.40
2022-10-09T05:25:19.254Z,90.30
2022-10-09T05:27:45.953Z,90.20
2022-10-09T05:30:12.666Z,90.30
2022-10-09T05:32:39.557Z,90.30
2022-10-09T05:35:06.512Z,90.40
2022-10-09T05:37:33.132Z,90.70
2022-10-09T05:39:59.864Z,90.90
2022-10-09T05:42:26.614Z,90.90
2022-10-09T05:44:53.272Z,91.10
2022-10-09T05:47:19.941Z,91.10
2022-10-09T05:49:47.409Z,91.60
2022-10-09T05:52:14.030Z,91.60
2022-10-09T05:54:41.935Z,92.00
2022-10-09T05:57:09.281Z,92.20
2022-10-09T05:59:36.064Z,92.40
2022-10-09T06:02:03.402Z,92.70
2022-10-09T06:04:30.222Z,92.90
2022-10-09T06:06:56.836Z,93.20
2022-10-09T06:09:25.376Z,93.40
2022-10-09T06:11:52.937Z,93.30
2022-10-09T06:14:22.296Z,93.40
2022-10-09T06:16:49.117Z,93.40
2022-10-09T06:19:16.719Z,93.70
2022-10-09T06:21:43.577Z,93.80
2022-10-09T06:24:29.499Z,93.80
2022-10-09T06:26:56.779Z,93.90
2022-10-09T06:29:23.426Z,94.00
2022-10-09T06:31:50.102Z,94.00
2022-10-09T06:34:16.782Z,94.10
2022-10-09T06:36:43.433Z,94.20
2022-10-09T06:39:10.423Z,94.30
2022-10-09T06:41:37.075Z,94.40
2022-10-09T06:44:06.593Z,94.50
2022-10-09T06:46:35.562Z,94.50
2022-10-09T06:49:02.949Z,94.60
2022-10-09T06:51:30.074Z,94.60
2022-10-09T06:53:59.019Z,94.60
2022-10-09T06:56:27.032Z,94.60
2022-10-09T06:58:55.825Z,94.70
2022-10-09T07:01:25.429Z,94.70
2022-10-09T07:03:56.926Z,94.30
2022-10-09T07:06:24.958Z,93.90
2022-10-09T07:08:54.330Z,93.40
2022-10-09T07:11:22.801Z,93.20
2022-10-09T07:13:50.587Z,93.40
2022-10-09T07:16:22.058Z,93.00
2022-10-09T07:18:49.023Z,93.00
2022-10-09T07:21:16.305Z,92.90
2022-10-09T07:23:42.990Z,92.70
2022-10-09T07:26:12.206Z,92.50
2022-10-09T07:28:39.472Z,92.60
2022-10-09T07:33:49.354Z,93.20
2022-10-09T07:36:18.290Z,92.80
2022-10-09T07:38:49.855Z,92.50
2022-10-09T07:41:16.525Z,91.50
2022-10-09T07:43:43.527Z,90.50
2022-10-09T07:46:12.872Z,90.50
2022-10-09T07:48:39.912Z,90.90
2022-10-09T07:51:11.623Z,90.20
2022-10-09T07:53:38.674Z,89.70
2022-10-09T07:56:06.933Z,89.60
2022-10-09T07:58:33.793Z,90.20
2022-10-09T08:01:08.035Z,90.50
2022-10-09T08:03:35.270Z,89.70
2022-10-09T08:06:01.993Z,89.60
2022-10-09T08:08:28.612Z,88.80
2022-10-09T08:10:55.225Z,88.90
2022-10-09T08:13:21.969Z,87.20
2022-10-09T08:15:48.776Z,87.80
2022-10-09T08:18:17.754Z,87.80
2022-10-09T08:20:44.934Z,87.80
2022-10-09T08:23:17.646Z,87.00
2022-10-09T08:25:44.286Z,86.90
2022-10-09T08:28:11.955Z,85.90
2022-10-09T08:30:40.759Z,86.10
2022-10-09T08:33:07.447Z,85.60
2022-10-09T08:35:38.248Z,85.00
2022-10-09T08:38:04.929Z,84.40
2022-10-09T08:40:47.150Z,84.40
2022-10-09T08:43:15.812Z,83.80
2022-10-09T08:45:43.734Z,84.40
2022-10-09T08:48:23.831Z,83.00
2022-10-09T08:50:54.430Z,82.30
2022-10-09T08:53:40.685Z,81.60
2022-10-09T08:56:12.085Z,80.80
2022-10-09T08:58:40.324Z,81.40
2022-10-09T09:01:19.182Z,81.70
2022-10-09T09:03:56.002Z,82.40
2022-10-09T09:06:47.816Z,80.50
2022-10-09T09:09:18.577Z,80.00
2022-10-09T09:11:57.622Z,79.70
2022-10-09T09:14:50.630Z,78.10
2022-10-09T09:17:36.057Z,78.20
2022-10-09T09:20:20.475Z,78.30
2022-10-09T09:22:48.956Z,78.60
2022-10-09T09:25:23.622Z,77.80
2022-10-09T09:27:52.464Z,77.90
2022-10-09T09:30:31.172Z,77.80
2022-10-09T09:33:14.317Z,77.30
2022-10-09T09:36:00.072Z,77.90
2022-10-09T09:38:28.956Z,77.70
2022-10-09T09:40:58.987Z,77.10
2022-10-09T09:43:26.835Z,75.50
2022-10-09T09:46:01.069Z,75.00
2022-10-09T09:48:34.265Z,76.00
2022-10-09T09:51:23.619Z,75.50
2022-10-09T09:53:51.171Z,75.50
2022-10-09T09:56:18.541Z,76.20
2022-10-09T09:58:53.146Z,75.60
2022-10-09T10:01:28.315Z,73.60
2022-10-09T10:03:56.524Z,74.30
2022-10-09T10:06:24.182Z,73.30
2022-10-09T10:08:58.236Z,73.10
2022-10-09T10:11:25.307Z,71.90
2022-10-09T10:13:51.924Z,73.00
2022-10-09T10:16:23.551Z,71.50
2022-10-09T10:18:50.445Z,73.20
2022-10-09T10:21:23.295Z,71.40
2022-10-09T10:23:55.897Z,71.40
2022-10-09T10:26:22.664Z,71.80
2022-10-09T10:28:56.930Z,71.10
2022-10-09T10:31:32.362Z,72.40
2022-10-09T10:33:59.536Z,71.50
2022-10-09T10:36:27.886Z,71.40
2022-10-09T10:39:08.207Z,70.20
2022-10-09T10:41:42.700Z,70.50
2022-10-09T10:44:21.462Z,71.20
2022-10-09T10:46:52.492Z,70.10
2022-10-09T10:49:20.755Z,70.80
2022-10-09T10:52:07.737Z,70.40
2022-10-09T10:54:38.042Z,69.40
2022-10-09T10:57:20.960Z,69.00
2022-10-09T10:59:53.727Z,69.40
2022-10-09T11:02:48.731Z,69.70
2022-10-09T11:05:22.942Z,68.70
2022-10-09T11:08:00.042Z,69.10
2022-10-09T11:11:05.524Z,69.30
2022-10-09T11:13:43.586Z,69.40
2022-10-09T11:16:29.500Z,69.40
2022-10-09T11:19:19.158Z,69.10
2022-10-09T11:22:04.309Z,68.50
2022-10-09T11:24:34.005Z,68.50
2022-10-09T11:27:19.049Z,68.20
2022-10-09T11:30:00.389Z,68.70
2022-10-09T11:32:30.306Z,68.20
2022-10-09T11:34:57.764Z,67.90
2022-10-09T11:37:29.711Z,68.90
2022-10-09T11:39:56.789Z,68.30
2022-10-09T11:42:26.297Z,67.50
2022-10-09T11:45:11.385Z,67.60
2022-10-09T11:47:40.090Z,67.10
2022-10-09T11:50:14.349Z,67.40
2022-10-09T11:52:41.046Z,67.50
2022-10-09T11:55:28.070Z,66.60
2022-10-09T11:57:55.880Z,67.40
2022-10-09T12:00:33.341Z,68.20
2022-10-09T12:03:02.264Z,67.30
2022-10-09T12:05:46.150Z,67.60
2022-10-09T12:08:34.376Z,67.50
2022-10-09T12:11:09.381Z,66.80
2022-10-09T12:13:39.143Z,67.20
2022-10-09T12:16:07.905Z,67.10
2022-10-09T12:18:35.639Z,68.00
2022-10-09T12:21:07.882Z,67.10
2022-10-09T12:23:36.271Z,66.80
2022-10-09T12:26:03.781Z,67.70
2022-10-09T12:28:36.694Z,66.80
2022-10-09T12:31:05.161Z,66.80
2022-10-09T12:33:38.769Z,66.40
2022-10-09T12:36:14.326Z,66.40
2022-10-09T12:38:41.485Z,67.20
2022-10-09T12:41:23.996Z,67.60
2022-10-09T12:43:51.733Z,66.60
2022-10-09T12:46:30.949Z,66.00
2022-10-09T12:48:58.619Z,64.90
2022-10-09T12:51:26.962Z,64.10
2022-10-09T12:53:55.125Z,65.60
2022-10-09T12:56:24.288Z,63.90
2022-10-09T12:58:51.162Z,65.10
2022-10-09T13:01:18.486Z,64.60
2022-10-09T13:03:59.158Z,64.10
2022-10-09T13:06:35.301Z,63.90
2022-10-09T13:09:07.927Z,63.70
2022-10-09T13:11:40.423Z,63.20
2022-10-09T13:14:07.864Z,63.70
2022-10-09T13:16:47.699Z,63.50
2022-10-09T13:19:26.488Z,65.00
2022-10-09T13:21:59.974Z,63.40
2022-10-09T13:24:29.669Z,62.70
2022-10-09T13:26:56.406Z,62.80
2022-10-09T13:29:23.184Z,63.00
2022-10-09T13:31:55.897Z,63.30
2022-10-09T13:34:24.505Z,62.60
2022-10-09T13:36:51.372Z,63.00
2022-10-09T13:39:19.059Z,63.20
2022-10-09T13:41:47.131Z,62.90
2022-10-09T13:44:14.907Z,61.80
2022-10-09T13:46:43.980Z,62.30
2022-10-09T13:49:11.145Z,62.10
2022-10-09T13:51:37.751Z,62.40
2022-10-09T13:54:06.044Z,61.10
2022-10-09T13:56:34.778Z,61.40
2022-10-09T13:59:01.494Z,61.40
2022-10-09T14:01:28.245Z,61.50
2022-10-09T14:03:55.309Z,61.50
2022-10-09T14:06:22.486Z,61.00
2022-10-09T14:08:50.317Z,60.90
2022-10-09T14:11:17.076Z,62.10
2022-10-09T14:13:43.861Z,61.20
2022-10-09T14:16:11.609Z,61.50
2022-10-09T14:18:38.519Z,60.90
2022-10-09T14:21:12.516Z,61.10
2022-10-09T14:23:41.685Z,61.00
2022-10-09T14:26:08.893Z,60.90
2022-10-09T14:28:35.693Z,61.50
2022-10-09T14:31:06.785Z,60.70
2022-10-09T14:33:33.461Z,61.40
2022-10-09T14:36:11.434Z,63.20
2022-10-09T14:38:38.818Z,61.50
2022-10-09T14:41:05.886Z,61.00
2022-10-09T14:43:32.619Z,61.00
2022-10-09T14:46:05.093Z,61.90
2022-10-09T14:48:34.312Z,61.60
2022-10-09T14:51:08.245Z,62.40
2022-10-09T14:53:36.215Z,61.70
2022-10-09T14:56:04.611Z,61.90
2022-10-09T14:58:32.425Z,62.00
2022-10-09T15:01:00.252Z,62.90
2022-10-09T15:03:28.687Z,61.70
2022-10-09T15:06:03.065Z,62.70
2022-10-09T15:08:30.196Z,61.70
2022-10-09T15:10:59.395Z,62.10
2022-10-09T15:13:29.460Z,62.30
2022-10-09T15:16:04.121Z,63.00
2022-10-09T15:18:30.921Z,62.60
2022-10-09T15:21:04.026Z,62.70
2022-10-09T15:23:33.704Z,62.50
2022-10-09T15:26:00.914Z,62.70
2022-10-09T15:28:27.796Z,62.80
2022-10-09T15:31:00.086Z,63.30
2022-10-09T15:33:27.496Z,63.80
2022-10-09T15:35:54.269Z,64.50
2022-10-09T15:38:21.827Z,64.50
2022-10-09T15:40:50.302Z,63.80
2022-10-09T15:43:17.926Z,64.80
2022-10-09T15:45:54.218Z,64.50
2022-10-09T15:48:21.874Z,64.80
2022-10-09T15:50:50.636Z,64.90
2022-10-09T15:53:18.736Z,64.90
2022-10-09T15:55:52.777Z,65.30
2022-10-09T15:58:20.618Z,65.20
2022-10-09T16:00:50.461Z,66.10
2022-10-09T16:03:23.122Z,66.10
2022-10-09T16:05:51.007Z,66.40
2022-10-09T16:08:18.971Z,66.50
2022-10-09T16:10:48.988Z,66.70
2022-10-09T16:13:18.153Z,67.20
2022-10-09T16:15:47.168Z,68.20
2022-10-09T16:18:14.791Z,67.70
2022-10-09T16:20:45.886Z,67.00
2022-10-09T16:23:13.220Z,66.90
2022-10-09T16:25:40.755Z,66.90
2022-10-09T16:28:08.391Z,67.40
2022-10-09T16:30:42.168Z,68.20
2022-10-09T16:33:12.409Z,67.60
2022-10-09T16:35:39.881Z,66.90
2022-10-09T16:38:06.570Z,67.10
2022-10-09T16:40:57.294Z,67.00
2022-10-09T16:43:20.509Z,68.00
2022-10-09T16:45:47.377Z,68.00
2022-10-09T16:48:14.071Z,67.50
2022-10-09T16:50:41.294Z,67.10
2022-10-09T16:53:09.418Z,67.60
2022-10-09T16:55:36.262Z,68.50
2022-10-09T16:58:03.065Z,68.40
2022-10-09T17:00:32.821Z,68.20
2022-10-09T17:02:59.725Z,69.00
2022-10-09T17:05:26.651Z,68.50
2022-10-09T17:07:54.172Z,69.00
2022-10-09T17:10:20.899Z,68.90
2022-10-09T17:12:48.479Z,69.20
2022-10-09T17:15:15.296Z,70.00
2022-10-09T17:17:42.059Z,69.90
2022-10-09T17:20:09.204Z,70.30
2022-10-09T17:22:37.998Z,70.20
2022-10-09T17:25:05.066Z,70.50
2022-10-09T17:27:31.676Z,70.50
2022-10-09T17:30:01.466Z,70.70
2022-10-09T17:32:28.117Z,71.40
2022-10-09T17:34:54.801Z,70.80
2022-10-09T17:37:21.532Z,70.60
2022-10-09T17:39:52.001Z,71.00
2022-10-09T17:42:19.322Z,71.10
2022-10-09T17:44:46.048Z,70.70
2022-10-09T17:47:12.758Z,71.40
2022-10-09T17:49:39.481Z,71.20
2022-10-09T17:52:06.194Z,71.60
2022-10-09T17:54:35.006Z,71.70
2022-10-09T17:57:06.421Z,72.20
2022-10-09T17:59:34.657Z,71.80
2022-10-09T18:02:01.321Z,72.30
2022-10-09T18:04:27.907Z,72.00
2022-10-09T18:06:54.640Z,72.40
2022-10-09T18:09:21.695Z,73.30
2022-10-09T18:11:50.525Z,73.30
2022-10-09T18:14:18.219Z,73.40
2022-10-09T18:16:45.004Z,73.80
2022-10-09T18:19:13.473Z,74.30
2022-10-09T18:21:45.821Z,74.50
2022-10-09T18:24:19.584Z,74.30
2022-10-09T18:26:46.479Z,75.40
2022-10-09T18:29:13.301Z,75.90
2022-10-09T18:31:39.932Z,75.90
2022-10-09T18:34:08.537Z,75.90
2022-10-09T18:36:35.995Z,76.70
2022-10-09T18:39:09.641Z,77.30
2022-10-09T18:41:38.104Z,76.60
2022-10-09T18:44:05.455Z,77.10
2022-10-09T18:46:34.813Z,78.10
2022-10-09T18:49:01.882Z,77.80
2022-10-09T18:51:28.860Z,78.90
2022-10-09T18:53:57.628Z,78.40
2022-10-09T18:56:24.493Z,78.20
2022-10-09T18:58:53.304Z,78.50
2022-10-09T19:01:20.064Z,78.80
2022-10-09T19:03:50.061Z,79.20
2022-10-09T19:06:18.105Z,79.30
2022-10-09T19:08:45.095Z,79.40
2022-10-09T19:11:14.348Z,79.20
2022-10-09T19:13:41.842Z,79.00
2022-10-09T19:16:09.858Z,79.50
2022-10-09T19:18:38.564Z,79.30
2022-10-09T19:21:12.063Z,79.10
2022-10-09T19:23:40.628Z,78.90
2022-10-09T19:26:08.268Z,79.40
2022-10-09T19:28:37.879Z,78.90
2022-10-09T19:31:07.643Z,79.50
2022-10-09T19:33:34.933Z,79.10
2022-10-09T19:36:01.731Z,79.30
2022-10-09T19:38:29.892Z,79.40
2022-10-09T19:41:02.203Z,79.30
2022-10-09T19:43:29.043Z,79.30
2022-10-09T19:46:06.371Z,79.10
2022-10-09T19:48:33.181Z,79.70
2022-10-09T19:51:04.311Z,79.40
2022-10-09T19:53:31.023Z,79.90
2022-10-09T19:55:57.678Z,80.00
2022-10-09T19:58:24.333Z,80.20
2022-10-09T20:00:51.097Z,80.20
2022-10-09T20:03:19.306Z,80.00
2022-10-09T20:05:47.264Z,80.40
2022-10-09T20:08:14.049Z,80.30
2022-10-09T20:10:46.563Z,80.70
2022-10-09T20:13:14.222Z,80.50
2022-10-09T20:15:42.395Z,80.60
2022-10-09T20:18:09.365Z,81.30
2022-10-09T20:20:36.058Z,81.20
2022-10-09T20:23:02.715Z,81.10
2022-10-09T20:25:30.139Z,81.30
2022-10-09T20:27:57.848Z,81.20
2022-10-09T20:30:24.481Z,82.30
2022-10-09T20:32:55.327Z,81.60
2022-10-09T20:35:25.780Z,81.70
2022-10-09T20:37:55.733Z,81.90
2022-10-09T20:40:22.438Z,82.10
2022-10-09T20:42:49.446Z,82.40
2022-10-09T20:45:16.429Z,82.10
2022-10-09T20:47:43.128Z,82.60
2022-10-09T20:50:10.025Z,82.30
2022-10-09T20:52:37.823Z,82.30
2022-10-09T20:55:04.598Z,82.00
2022-10-09T20:57:33.725Z,82.70
2022-10-09T21:00:00.530Z,82.70
2022-10-09T21:02:29.504Z,82.60
2022-10-09T21:04:56.147Z,82.70
2022-10-09T21:07:23.918Z,82.70
2022-10-09T21:09:50.590Z,82.80
2022-10-09T21:12:18.353Z,83.10
2022-10-09T21:14:45.207Z,83.90
2022-10-09T21:17:11.818Z,83.90
2022-10-09T21:19:38.471Z,83.60
2022-10-09T21:22:05.508Z,84.00
2022-10-09T21:24:34.199Z,83.70
2022-10-09T21:27:01.955Z,83.90
2022-10-09T21:29:28.862Z,84.00
2022-10-09T21:31:59.991Z,83.90
2022-10-09T21:34:26.710Z,84.60
2022-10-09T21:37:20.869Z,84.50
2022-10-09T21:39:41.113Z,84.20
2022-10-09T21:42:08.974Z,84.10
2022-10-09T21:44:35.566Z,84.10
2022-10-09T21:47:05.840Z,84.40
2022-10-09T21:49:39.553Z,84.50
2022-10-09T21:52:06.410Z,85.20
2022-10-09T21:54:33.033Z,85.60
2022-10-09T21:56:59.664Z,85.40
2022-10-09T21:59:26.397Z,85.30
2022-10-09T22:01:53.382Z,85.60
2022-10-09T22:04:20.081Z,85.70
2022-10-09T22:06:46.771Z,85.40
2022-10-09T22:09:13.508Z,85.00
2022-10-09T22:11:40.144Z,85.20
2022-10-09T22:14:08.063Z,85.30
2022-10-09T22:16:34.911Z,85.90
2022-10-09T22:19:02.940Z,85.70
2022-10-09T22:21:30.673Z,86.00
2022-10-09T22:23:57.835Z,86.70
2022-10-09T22:26:24.959Z,86.30
2022-10-09T22:28:52.716Z,86.00
2022-10-09T22:31:24.319Z,86.60
2022-10-09T22:33:54.213Z,86.40
2022-10-09T22:36:24.004Z,86.10
2022-10-09T22:38:53.171Z,86.30
2022-10-09T22:41:20.516Z,85.90
2022-10-09T22:43:50.720Z,86.30
2022-10-09T22:46:27.404Z,86.10
2022-10-09T22:49:00.383Z,86.00
2022-10-09T22:51:28.009Z,86.20
2022-10-09T22:53:55.471Z,86.40
2022-10-09T22:56:23.109Z,86.60
2022-10-09T22:58:54.933Z,86.70
2022-10-09T23:01:25.278Z,86.30
2022-10-09T23:03:51.922Z,86.70
2022-10-09T23:06:19.505Z,87.00
2022-10-09T23:08:47.150Z,86.80
2022-10-09T23:11:14.596Z,86.50
2022-10-09T23:13:41.452Z,86.40
2022-10-09T23:16:09.310Z,86.30
2022-10-09T23:18:39.046Z,86.50
2022-10-09T23:21:08.149Z,86.80
2022-10-09T23:23:34.955Z,86.80
2022-10-09T23:26:09.411Z,86.80
2022-10-09T23:28:36.275Z,86.70
2022-10-09T23:31:04.417Z,86.90
2022-10-09T23:33:31.020Z,87.40
2022-10-09T23:36:05.721Z,87.30
2022-10-09T23:38:32.457Z,87.20
2022-10-09T23:41:00.419Z,87.50
2022-10-09T23:43:30.113Z,87.50
2022-10-09T23:46:00.395Z,87.50
2022-10-09T23:48:27.068Z,87.50
2022-10-09T23:50:54.429Z,87.30
2022-10-09T23:53:21.572Z,87.60
2022-10-09T23:55:48.606Z,87.40
2022-10-09T23:58:20.522Z,87.40
